createdAt,value
2023-02-11T00:00:30.068Z,46.80
2023-02-11T00:02:59.945Z,43.20
2023-02-11T00:05:29.667Z,41.17
2023-02-11T00:07:59.372Z,43.87
2023-02-11T00:10:29.055Z,44.13
2023-02-11T00:13:01.406Z,47.30
2023-02-11T00:15:31.109Z,43.30
2023-02-11T00:18:00.874Z,43.87
2023-02-11T00:20:30.572Z,43.30
2023-02-11T00:23:00.464Z,45.23
2023-02-11T00:25:30.234Z,46.17
2023-02-11T00:28:03.153Z,47.23
2023-02-11T00:30:33.397Z,43.80
2023-02-11T00:33:03.724Z,48.03
2023-02-11T00:35:35.382Z,48.37
2023-02-11T00:38:05.115Z,47.80
2023-02-11T00:40:34.885Z,47.97
2023-02-11T00:43:09.289Z,48.40
2023-02-11T00:45:39.044Z,48.23
2023-02-11T00:48:09.207Z,46.23
2023-02-11T00:50:39.878Z,50.53
2023-02-11T00:53:09.937Z,50.47
2023-02-11T00:55:42.322Z,51.53
2023-02-11T00:58:15.018Z,54.97
2023-02-11T01:00:46.035Z,52.70
2023-02-11T01:03:17.007Z,51.27
2023-02-11T01:05:47.490Z,51.40
2023-02-11T01:08:17.523Z,52.57
2023-02-11T01:10:48.117Z,50.60
2023-02-11T01:13:20.931Z,51.80
2023-02-11T01:15:51.256Z,53.10
2023-02-11T01:18:21.749Z,54.93
2023-02-11T01:20:53.467Z,49.77
2023-02-11T01:23:23.721Z,48.00
2023-02-11T01:25:54.539Z,49.77
2023-02-11T01:28:28.806Z,51.47
2023-02-11T01:30:59.880Z,51.70
2023-02-11T01:33:29.803Z,50.03
2023-02-11T01:36:03.485Z,50.30
2023-02-11T01:38:34.236Z,48.70
2023-02-11T01:41:05.780Z,51.17
2023-02-11T01:43:41.076Z,49.60
2023-02-11T01:46:34.206Z,51.20
2023-02-11T01:49:08.941Z,51.03
2023-02-11T01:51:43.336Z,50.90
2023-02-11T01:54:38.138Z,51.60
2023-02-11T01:57:22.277Z,51.00
2023-02-11T02:00:04.570Z,49.43
2023-02-11T02:02:51.284Z,49.17
2023-02-11T02:05:28.004Z,49.57
2023-02-11T02:08:07.828Z,52.33
2023-02-11T02:10:40.610Z,52.57
2023-02-11T02:13:10.420Z,50.97
2023-02-11T02:15:50.306Z,52.20
2023-02-11T02:18:33.849Z,50.83
2023-02-11T02:21:25.347Z,48.70
2023-02-11T02:24:27.990Z,52.23
2023-02-11T02:27:18.628Z,49.47
2023-02-11T02:30:19.675Z,50.23
2023-02-11T02:33:21.835Z,53.10
2023-02-11T02:36:01.106Z,51.83
2023-02-11T02:38:34.490Z,50.60
2023-02-11T02:41:09.727Z,50.20
2023-02-11T02:43:51.444Z,49.50
2023-02-11T02:46:24.136Z,50.33
2023-02-11T02:48:58.464Z,49.70
2023-02-11T02:51:50.418Z,50.87
2023-02-11T02:54:45.269Z,48.47
2023-02-11T02:57:30.347Z,51.50
2023-02-11T03:00:20.075Z,52.00
2023-02-11T03:03:08.094Z,52.43
2023-02-11T03:05:53.188Z,50.53
2023-02-11T03:08:30.313Z,51.37
2023-02-11T03:11:02.552Z,51.40
2023-02-11T03:13:36.113Z,51.00
2023-02-11T03:16:18.150Z,51.97
2023-02-11T03:19:01.178Z,49.93
2023-02-11T03:21:54.968Z,51.17
2023-02-11T03:24:42.462Z,51.63
2023-02-11T03:27:31.922Z,50.03
2023-02-11T03:30:15.857Z,49.33
2023-02-11T03:32:53.264Z,52.10
2023-02-11T03:35:32.331Z,52.30
2023-02-11T03:38:13.082Z,48.73
2023-02-11T03:40:46.491Z,53.20
2023-02-11T03:43:21.552Z,51.80
2023-02-11T03:45:58.828Z,50.97
2023-02-11T03:48:34.270Z,51.53
2023-02-11T03:51:07.282Z,55.40
2023-02-11T03:53:54.123Z,51.80
2023-02-11T03:56:29.407Z,52.00
2023-02-11T03:59:01.114Z,51.90
2023-02-11T04:01:34.525Z,56.43
2023-02-11T04:04:10.114Z,50.83
2023-02-11T04:06:49.687Z,50.90
2023-02-11T04:09:25.609Z,50.83
2023-02-11T04:12:01.805Z,50.60
2023-02-11T04:15:00.598Z,51.10
2023-02-11T04:17:35.539Z,51.47
2023-02-11T04:20:05.752Z,52.40
2023-02-11T04:22:39.160Z,49.10
2023-02-11T04:25:14.038Z,50.23
2023-02-11T04:27:47.119Z,50.17
2023-02-11T04:30:21.993Z,52.63
2023-02-11T04:32:54.650Z,49.77
2023-02-11T04:35:26.841Z,50.43
2023-02-11T04:42:17.313Z,51.70
2023-02-11T04:45:15.417Z,48.30
2023-02-11T04:48:02.800Z,49.13
2023-02-11T04:51:50.906Z,49.70
2023-02-11T04:54:26.587Z,52.10
2023-02-11T04:58:01.525Z,51.40
2023-02-11T05:10:35.173Z,49.50
2023-02-11T05:12:03.359Z,49.53
2023-02-11T05:14:35.994Z,49.73
2023-02-11T05:17:05.762Z,50.60
2023-02-11T05:19:35.568Z,49.43
2023-02-11T05:22:05.306Z,50.63
2023-02-11T05:24:35.637Z,49.70
2023-02-11T05:27:05.334Z,46.70
2023-02-11T05:29:37.959Z,48.20
2023-02-11T05:32:09.182Z,48.37
2023-02-11T05:34:39.344Z,45.47
2023-02-11T05:37:09.326Z,47.10
2023-02-11T05:39:39.182Z,47.90
2023-02-11T05:42:09.161Z,45.97
2023-02-11T05:44:41.698Z,45.17
2023-02-11T05:47:11.351Z,45.07
2023-02-11T05:49:41.139Z,45.87
2023-02-11T05:52:10.938Z,45.10
2023-02-11T05:54:40.719Z,45.67
2023-02-11T05:57:10.405Z,47.10
2023-02-11T05:59:43.187Z,43.40
2023-02-11T06:02:13.441Z,45.80
2023-02-11T06:04:44.433Z,42.60
2023-02-11T06:07:15.704Z,42.63
2023-02-11T06:09:46.806Z,42.50
2023-02-11T06:12:17.041Z,42.23
2023-02-11T06:14:49.771Z,40.90
2023-02-11T06:17:19.689Z,42.30
2023-02-11T06:19:49.582Z,41.50
2023-02-11T06:22:19.855Z,39.93
2023-02-11T06:25:00.753Z,41.30
2023-02-11T06:27:31.556Z,37.83
2023-02-11T06:30:03.847Z,38.40
2023-02-11T06:32:49.087Z,38.20
2023-02-11T06:35:18.988Z,39.20
2023-02-11T06:37:49.810Z,38.57
2023-02-11T06:40:19.512Z,38.90
2023-02-11T06:42:49.288Z,39.10
2023-02-11T06:45:21.892Z,41.00
2023-02-11T06:47:54.781Z,39.00
2023-02-11T06:50:24.891Z,37.37
2023-02-11T06:52:54.571Z,38.93
2023-02-11T06:55:24.323Z,39.33
2023-02-11T06:57:54.218Z,38.30
2023-02-11T07:00:26.701Z,36.60
2023-02-11T07:02:56.508Z,38.57
2023-02-11T07:05:26.324Z,36.40
2023-02-11T07:07:56.107Z,36.13
2023-02-11T07:10:25.791Z,36.87
2023-02-11T07:12:57.758Z,37.70
2023-02-11T07:15:31.001Z,37.03
2023-02-11T07:18:01.144Z,38.70
2023-02-11T07:20:31.029Z,37.10
2023-02-11T07:23:00.767Z,34.03
2023-02-11T07:25:30.685Z,36.90
2023-02-11T07:28:00.972Z,36.77
2023-02-11T07:30:33.348Z,37.03
2023-02-11T07:33:03.319Z,37.63
2023-02-11T07:35:33.132Z,36.20
2023-02-11T07:38:03.048Z,37.63
2023-02-11T07:40:33.993Z,37.57
2023-02-11T07:43:03.957Z,36.93
2023-02-11T07:45:36.368Z,37.27
2023-02-11T07:48:06.076Z,35.80
2023-02-11T07:50:35.858Z,38.67
2023-02-11T07:53:06.282Z,36.10
2023-02-11T07:55:36.481Z,36.40
2023-02-11T07:58:06.964Z,35.33
2023-02-11T08:00:39.710Z,37.77
2023-02-11T08:03:09.638Z,38.40
2023-02-11T08:05:40.843Z,38.37
2023-02-11T08:08:10.605Z,36.23
2023-02-11T08:10:40.375Z,35.07
2023-02-11T08:13:10.139Z,37.47
2023-02-11T08:15:42.363Z,36.83
2023-02-11T08:18:12.025Z,34.73
2023-02-11T08:20:41.764Z,35.87
2023-02-11T08:23:11.466Z,34.33
2023-02-11T08:25:41.250Z,36.90
2023-02-11T08:28:11.334Z,36.80
2023-02-11T08:30:43.627Z,36.37
2023-02-11T08:33:13.276Z,37.23
2023-02-11T08:35:42.932Z,37.63
2023-02-11T08:38:12.658Z,37.97
2023-02-11T08:40:42.318Z,37.17
2023-02-11T08:43:11.939Z,37.10
2023-02-11T08:45:44.294Z,35.97
2023-02-11T08:48:13.995Z,38.63
2023-02-11T08:50:43.652Z,40.27
2023-02-11T08:53:13.423Z,36.33
2023-02-11T08:55:43.119Z,38.13
2023-02-11T08:58:12.826Z,37.70
2023-02-11T09:00:45.588Z,39.20
2023-02-11T09:03:16.086Z,38.40
2023-02-11T09:05:46.684Z,37.90
2023-02-11T09:08:17.175Z,38.97
2023-02-11T09:10:47.047Z,40.13
2023-02-11T09:13:17.022Z,38.23
2023-02-11T09:15:50.781Z,38.67
2023-02-11T09:18:20.430Z,39.20
2023-02-11T09:20:50.420Z,37.00
2023-02-11T09:23:20.269Z,39.30
2023-02-11T09:25:50.157Z,39.97
2023-02-11T09:28:20.108Z,37.23
2023-02-11T09:30:52.774Z,40.37
2023-02-11T09:33:22.575Z,38.70
2023-02-11T09:35:52.254Z,39.23
2023-02-11T09:38:21.895Z,40.00
2023-02-11T09:40:51.811Z,41.37
2023-02-11T09:43:25.350Z,40.00
2023-02-11T09:45:58.564Z,40.83
2023-02-11T09:48:28.666Z,38.97
2023-02-11T09:51:01.737Z,38.70
2023-02-11T09:53:35.282Z,42.03
2023-02-11T09:56:13.799Z,40.10
2023-02-11T09:58:47.264Z,40.60
2023-02-11T10:01:31.904Z,39.00
2023-02-11T10:04:10.088Z,40.37
2023-02-11T10:06:43.695Z,41.23
2023-02-11T10:09:30.861Z,39.33
2023-02-11T10:12:14.172Z,40.47
2023-02-11T10:14:59.698Z,43.03
2023-02-11T10:17:41.285Z,42.30
2023-02-11T10:20:23.319Z,39.97
2023-02-11T10:22:56.181Z,43.00
2023-02-11T10:25:28.835Z,41.23
2023-02-11T10:28:02.411Z,43.00
2023-02-11T10:30:36.278Z,41.07
2023-02-11T10:33:18.163Z,39.67
2023-02-11T10:35:47.842Z,39.73
2023-02-11T10:38:17.547Z,41.13
2023-02-11T10:40:47.487Z,39.47
2023-02-11T10:43:20.328Z,39.90
2023-02-11T10:45:52.648Z,40.27
2023-02-11T10:48:49.515Z,42.60
2023-02-11T10:51:24.380Z,37.90
2023-02-11T10:54:14.532Z,36.93
2023-02-11T10:56:50.167Z,41.97
2023-02-11T10:59:26.996Z,38.57
2023-02-11T11:02:00.758Z,39.50
2023-02-11T11:04:42.655Z,39.00
2023-02-11T11:07:15.549Z,37.00
2023-02-11T11:09:52.567Z,36.13
2023-02-11T11:12:42.214Z,38.50
2023-02-11T11:15:22.202Z,37.67
2023-02-11T11:17:52.531Z,37.93
2023-02-11T11:20:30.517Z,36.30
2023-02-11T11:23:16.942Z,38.73
2023-02-11T11:25:49.129Z,39.33
2023-02-11T11:28:26.793Z,37.77
2023-02-11T11:30:59.641Z,39.13
2023-02-11T11:33:32.456Z,37.20
2023-02-11T11:36:09.131Z,37.23
2023-02-11T11:38:45.644Z,36.27
2023-02-11T11:41:24.155Z,40.13
2023-02-11T11:44:06.932Z,34.23
2023-02-11T11:46:39.192Z,37.57
2023-02-11T11:49:28.631Z,35.10
2023-02-11T11:52:14.215Z,35.87
2023-02-11T11:54:48.109Z,36.23
2023-02-11T11:57:21.321Z,33.77
2023-02-11T11:59:51.036Z,34.17
2023-02-11T12:02:43.150Z,34.80
2023-02-11T12:05:17.379Z,33.10
2023-02-11T12:08:06.199Z,33.27
2023-02-11T12:11:05.547Z,32.73
2023-02-11T12:13:48.248Z,34.20
2023-02-11T12:16:27.983Z,34.60
2023-02-11T12:19:30.281Z,34.23
2023-02-11T12:22:08.000Z,32.67
2023-02-11T12:24:55.270Z,35.07
2023-02-11T12:27:40.337Z,32.50
2023-02-11T12:30:23.724Z,33.33
2023-02-11T12:33:03.351Z,32.10
2023-02-11T12:35:45.901Z,33.70
2023-02-11T12:38:31.383Z,32.43
2023-02-11T12:41:19.094Z,33.77
2023-02-11T12:43:46.364Z,33.03
2023-02-11T12:46:41.374Z,34.50
2023-02-11T12:49:23.893Z,32.57
2023-02-11T12:52:13.684Z,33.07
2023-02-11T12:54:48.802Z,34.53
2023-02-11T12:57:26.142Z,31.90
2023-02-11T13:00:07.809Z,32.17
2023-02-11T13:02:44.134Z,33.50
2023-02-11T13:05:34.581Z,32.93
2023-02-11T13:08:08.727Z,33.80
2023-02-11T13:10:41.018Z,34.13
2023-02-11T13:13:21.078Z,32.87
2023-02-11T13:15:54.650Z,33.47
2023-02-11T13:18:52.352Z,33.23
2023-02-11T13:21:36.627Z,34.97
2023-02-11T13:24:17.032Z,35.60
2023-02-11T13:26:54.262Z,34.60
2023-02-11T13:29:36.044Z,33.50
2023-02-11T13:32:11.338Z,35.27
2023-02-11T13:34:57.112Z,36.07
2023-02-11T13:37:29.261Z,34.27
2023-02-11T13:40:01.045Z,34.67
2023-02-11T13:42:31.670Z,36.20
2023-02-11T13:45:04.411Z,36.60
2023-02-11T13:47:36.913Z,35.57
2023-02-11T13:50:11.290Z,38.50
2023-02-11T13:52:42.826Z,37.77
2023-02-11T13:55:24.460Z,37.27
2023-02-11T13:58:36.609Z,38.47
2023-02-11T14:01:10.125Z,40.77
2023-02-11T14:03:54.646Z,38.87
2023-02-11T14:06:44.014Z,40.93
2023-02-11T14:09:57.393Z,39.93
2023-02-11T14:12:37.676Z,41.50
2023-02-11T14:15:24.293Z,43.20
2023-02-11T14:17:56.686Z,42.70
2023-02-11T14:24:41.389Z,44.17
2023-02-11T14:27:20.857Z,42.97
2023-02-11T14:30:16.392Z,46.57
2023-02-11T14:33:10.476Z,44.77
2023-02-11T14:35:48.453Z,50.07
2023-02-11T14:38:26.956Z,50.33
2023-02-11T14:41:07.333Z,46.13
2023-02-11T14:43:42.082Z,45.77
2023-02-11T14:46:41.988Z,46.73
2023-02-11T14:49:28.882Z,44.73
2023-02-11T14:52:27.995Z,48.27
2023-02-11T14:55:24.954Z,45.90
2023-02-11T14:58:28.405Z,46.80
2023-02-11T15:01:30.942Z,45.37
2023-02-11T15:04:05.568Z,47.60
2023-02-11T15:22:28.907Z,43.60
2023-02-11T15:25:17.679Z,42.23
2023-02-11T15:28:06.410Z,43.70
2023-02-11T15:30:36.749Z,42.33
2023-02-11T15:33:10.040Z,40.50
2023-02-11T15:35:43.071Z,40.83
2023-02-11T15:38:16.682Z,40.77
2023-02-11T15:40:57.052Z,40.30
2023-02-11T15:46:40.745Z,39.20
2023-02-11T15:49:21.785Z,40.53
2023-02-11T15:51:52.444Z,40.50
2023-02-11T15:54:29.624Z,38.30
2023-02-11T15:57:05.885Z,38.30
2023-02-11T15:59:43.616Z,38.13
2023-02-11T16:02:22.518Z,39.10
2023-02-11T16:04:55.053Z,37.73
2023-02-11T16:07:42.300Z,37.97
2023-02-11T16:10:27.671Z,38.00
2023-02-11T16:13:04.557Z,37.77
2023-02-11T16:15:47.002Z,36.43
2023-02-11T16:18:37.885Z,36.13
2023-02-11T16:21:16.741Z,37.27
2023-02-11T16:23:56.636Z,36.13
2023-02-11T16:38:12.128Z,33.60
2023-02-11T16:40:44.581Z,34.67
2023-02-11T16:43:18.068Z,35.90
2023-02-11T16:45:48.511Z,33.50
2023-02-11T16:48:22.145Z,35.07
2023-02-11T16:50:53.742Z,35.87
2023-02-11T16:53:37.079Z,34.67
2023-02-11T16:56:20.409Z,35.33
2023-02-11T16:58:59.197Z,39.08
2023-02-11T17:01:29.303Z,35.50
2023-02-11T17:03:59.247Z,38.13
2023-02-11T17:06:30.334Z,36.03
2023-02-11T17:09:00.128Z,33.27
2023-02-11T17:11:29.962Z,34.17
2023-02-11T17:14:02.442Z,34.73
2023-02-11T17:16:32.672Z,35.67
2023-02-11T17:19:02.517Z,35.43
2023-02-11T17:21:32.469Z,33.87
2023-02-11T17:24:02.284Z,32.60
2023-02-11T17:26:32.086Z,34.57
2023-02-11T17:29:04.679Z,32.10
2023-02-11T17:31:34.517Z,31.80
2023-02-11T17:34:05.708Z,33.23
2023-02-11T17:36:36.726Z,33.30
2023-02-11T17:39:08.477Z,32.70
2023-02-11T17:41:39.830Z,32.40
2023-02-11T17:44:16.485Z,32.20
2023-02-11T17:46:46.491Z,31.47
2023-02-11T17:49:16.454Z,35.07
2023-02-11T17:51:46.170Z,34.57
2023-02-11T17:54:18.257Z,33.47
2023-02-11T17:56:50.892Z,32.37
2023-02-11T17:59:23.704Z,33.87
2023-02-11T18:01:53.408Z,37.30
2023-02-11T18:04:23.097Z,32.30
2023-02-11T18:06:53.767Z,32.87
2023-02-11T18:09:23.542Z,34.97
2023-02-11T18:11:53.496Z,31.47
2023-02-11T18:14:25.813Z,33.10
2023-02-11T18:16:55.896Z,34.33
2023-02-11T18:19:25.610Z,30.80
2023-02-11T18:21:55.274Z,29.10
2023-02-11T18:24:26.462Z,28.73
2023-02-11T18:26:56.117Z,31.50
2023-02-11T18:29:28.338Z,29.40
2023-02-11T18:31:59.360Z,30.20
2023-02-11T18:34:29.256Z,30.00
2023-02-11T18:36:58.867Z,29.13
2023-02-11T18:39:28.526Z,29.73
2023-02-11T18:41:59.722Z,31.13
2023-02-11T18:44:32.139Z,31.33
2023-02-11T18:47:01.780Z,29.67
2023-02-11T18:49:33.074Z,27.83
2023-02-11T18:52:02.732Z,30.10
2023-02-11T18:54:32.420Z,28.30
2023-02-11T18:57:02.048Z,29.70
2023-02-11T18:59:34.287Z,28.60
2023-02-11T19:02:03.902Z,28.40
2023-02-11T19:04:33.556Z,28.87
2023-02-11T19:07:04.322Z,28.40
2023-02-11T19:09:34.122Z,30.27
2023-02-11T19:12:04.724Z,28.47
2023-02-11T19:14:38.677Z,27.50
2023-02-11T19:17:12.178Z,29.70
2023-02-11T19:19:41.886Z,29.80
2023-02-11T19:22:11.821Z,32.30
2023-02-11T19:24:41.832Z,29.47
2023-02-11T19:27:12.501Z,30.50
2023-02-11T19:29:44.708Z,30.37
2023-02-11T19:32:15.793Z,27.90
2023-02-11T19:34:45.484Z,29.50
2023-02-11T19:37:15.599Z,28.07
2023-02-11T19:39:46.321Z,29.10
2023-02-11T19:42:16.131Z,28.40
2023-02-11T19:44:48.508Z,29.13
2023-02-11T19:47:18.301Z,27.83
2023-02-11T19:49:48.185Z,27.40
2023-02-11T19:52:17.843Z,26.13
2023-02-11T19:54:47.570Z,25.73
2023-02-11T19:57:17.295Z,25.90
2023-02-11T19:59:49.628Z,25.60
2023-02-11T20:02:19.328Z,24.30
2023-02-11T20:04:49.138Z,23.10
2023-02-11T20:07:18.845Z,22.53
2023-02-11T20:09:48.508Z,24.47
2023-02-11T20:12:18.284Z,22.47
2023-02-11T20:14:50.526Z,21.40
2023-02-11T20:17:20.163Z,20.13
2023-02-11T20:19:49.948Z,19.10
2023-02-11T20:22:19.555Z,20.33
2023-02-11T20:24:49.200Z,20.47
2023-02-11T20:27:20.139Z,20.20
2023-02-11T20:29:52.634Z,19.30
2023-02-11T20:32:22.354Z,17.57
2023-02-11T20:34:52.688Z,17.60
2023-02-11T20:37:22.341Z,17.07
2023-02-11T20:39:51.978Z,17.00
2023-02-11T20:42:21.622Z,16.13
2023-02-11T20:44:53.997Z,16.90
2023-02-11T20:47:23.663Z,15.53
2023-02-11T20:49:53.422Z,16.03
2023-02-11T20:52:23.057Z,15.03
2023-02-11T20:54:52.696Z,15.33
2023-02-11T20:57:22.412Z,14.20
2023-02-11T20:59:55.011Z,14.47
2023-02-11T21:02:25.016Z,14.03
2023-02-11T21:04:54.699Z,13.80
2023-02-11T21:07:24.468Z,12.43
2023-02-11T21:09:54.086Z,12.63
2023-02-11T21:12:24.008Z,11.93
2023-02-11T21:14:58.000Z,12.27
2023-02-11T21:17:28.028Z,12.03
2023-02-11T21:19:57.635Z,10.60
2023-02-11T21:22:27.344Z,11.37
2023-02-11T21:24:57.011Z,11.80
2023-02-11T21:27:32.207Z,11.63
2023-02-11T21:30:04.924Z,12.07
2023-02-11T21:32:34.561Z,11.93
2023-02-11T21:35:04.220Z,10.47
2023-02-11T21:37:33.879Z,10.70
2023-02-11T21:40:03.608Z,10.60
2023-02-11T21:42:33.200Z,9.93
2023-02-11T21:45:05.634Z,9.77
2023-02-11T21:47:35.435Z,10.40
2023-02-11T21:50:05.270Z,10.03
2023-02-11T21:52:34.969Z,9.03
2023-02-11T21:55:04.679Z,9.63
2023-02-11T21:57:34.432Z,10.10
2023-02-11T22:00:07.763Z,10.47
2023-02-11T22:02:40.256Z,10.50
2023-02-11T22:05:11.218Z,9.23
2023-02-11T22:07:40.939Z,9.17
2023-02-11T22:10:12.181Z,9.60
2023-02-11T22:12:41.948Z,9.27
2023-02-11T22:15:15.070Z,8.80
2023-02-11T22:17:44.767Z,8.90
2023-02-11T22:20:16.641Z,8.93
2023-02-11T22:22:46.406Z,8.63
2023-02-11T22:25:16.184Z,8.10
2023-02-11T22:27:45.896Z,8.87
2023-02-11T22:30:19.469Z,8.67
2023-02-11T22:32:52.597Z,8.60
2023-02-11T22:35:28.606Z,8.37
2023-02-11T22:37:58.940Z,8.60
2023-02-11T22:40:29.370Z,7.40
2023-02-11T22:42:59.603Z,8.47
2023-02-11T22:45:34.827Z,8.53
2023-02-11T22:48:04.819Z,9.10
2023-02-11T22:50:52.221Z,8.27
2023-02-11T22:53:25.675Z,8.07
2023-02-11T22:55:56.030Z,9.10
2023-02-11T22:58:27.322Z,8.07
2023-02-11T23:00:59.945Z,8.60
2023-02-11T23:03:29.956Z,7.67
2023-02-11T23:06:01.712Z,8.53
2023-02-11T23:08:33.070Z,9.27
2023-02-11T23:11:07.840Z,8.77
2023-02-11T23:13:40.113Z,8.60
2023-02-11T23:16:15.290Z,8.27
2023-02-11T23:18:46.949Z,9.23
2023-02-11T23:21:21.314Z,8.10
2023-02-11T23:23:56.168Z,9.17
2023-02-11T23:26:26.265Z,8.73
2023-02-11T23:28:56.397Z,8.97
2023-02-11T23:31:30.755Z,8.30
2023-02-11T23:34:00.551Z,9.77
2023-02-11T23:36:30.741Z,9.40
2023-02-11T23:39:00.901Z,8.63
2023-02-11T23:41:30.936Z,9.20
2023-02-11T23:44:01.215Z,9.80
2023-02-11T23:46:33.684Z,9.03
2023-02-11T23:49:03.502Z,9.07
2023-02-11T23:51:33.538Z,9.90
2023-02-11T23:54:03.951Z,8.63
2023-02-11T23:56:33.811Z,9.00
2023-02-11T23:59:03.633Z,8.30
